Time;durP1;ratioP1;P1;durP2;ratioP2;P2;SDS_P1;SDS_P2;PMS_P1;PMS_P2;Temp;Humidity;BMP_temperature;BMP_pressure;BME280_temperature;BME280_humidity;BME280_pressure;Samples;Min_cycle;Max_cycle;Signal;HPM_P1;HPM_P2
2022/01/07 00:00:59;;;;;;;9.75;3.85;;;5.50;82.30;;;;;;5115178;28;20493;-80
2022/01/07 00:03:28;;;;;;;11.30;3.50;;;5.50;82.30;;;;;;5114996;28;20459;-79
2022/01/07 00:05:54;;;;;;;10.27;3.20;;;5.40;82.10;;;;;;5114389;28;20540;-79
2022/01/07 00:08:22;;;;;;;4.07;2.67;;;5.40;82.30;;;;;;5114666;28;20027;-80
2022/01/07 00:10:48;;;;;;;8.48;3.78;;;5.40;82.40;;;;;;5114422;28;20016;-80
2022/01/07 00:13:14;;;;;;;7.05;3.53;;;5.40;82.60;;;;;;5113932;28;20016;-79
2022/01/07 00:15:41;;;;;;;6.70;3.00;;;5.50;82.40;;;;;;5113408;28;20030;-80
2022/01/07 00:18:08;;;;;;;7.43;3.10;;;5.50;82.50;;;;;;5113634;28;20043;-79
2022/01/07 00:20:35;;;;;;;5.47;2.78;;;5.40;82.60;;;;;;5113709;28;20110;-80
2022/01/07 00:23:00;;;;;;;7.63;3.47;;;5.50;82.90;;;;;;5114039;28;20032;-80
2022/01/07 00:25:29;;;;;;;9.07;3.30;;;5.50;82.90;;;;;;5114845;28;20026;-80
2022/01/07 00:27:58;;;;;;;7.47;3.30;;;5.50;82.70;;;;;;5115781;28;20065;-80
2022/01/07 00:30:23;;;;;;;8.88;3.40;;;5.50;82.60;;;;;;5117358;28;20016;-80
2022/01/07 00:32:49;;;;;;;6.57;3.35;;;5.50;82.50;;;;;;5117283;28;20069;-80
2022/01/07 00:35:17;;;;;;;8.52;3.85;;;5.50;82.40;;;;;;5115208;28;20040;-80
2022/01/07 00:37:43;;;;;;;6.35;3.40;;;5.50;82.30;;;;;;5115538;28;20059;-80
2022/01/07 00:40:13;;;;;;;5.43;3.22;;;5.50;82.20;;;;;;5115285;28;20033;-80
2022/01/07 00:42:39;;;;;;;9.80;3.70;;;5.50;82.40;;;;;;5114014;28;20023;-79
2022/01/07 00:45:07;;;;;;;5.22;2.92;;;5.50;82.10;;;;;;5117185;28;20027;-79
2022/01/07 00:47:35;;;;;;;7.15;3.30;;;5.50;82.60;;;;;;5116884;28;20011;-79
2022/01/07 00:50:02;;;;;;;9.05;3.72;;;5.40;82.60;;;;;;5114245;28;20047;-79
2022/01/07 00:52:28;;;;;;;9.45;3.63;;;5.50;82.30;;;;;;5113267;28;20387;-79
2022/01/07 00:54:54;;;;;;;8.27;3.70;;;5.50;81.80;;;;;;5111964;28;20016;-78
2022/01/07 00:57:19;;;;;;;6.80;3.20;;;5.40;82.00;;;;;;5111719;28;20490;-80
2022/01/07 00:59:46;;;;;;;8.10;3.83;;;5.40;82.00;;;;;;5112991;28;20099;-80
2022/01/07 01:02:13;;;;;;;6.82;3.60;;;5.40;82.10;;;;;;5111783;28;20024;-80
2022/01/07 01:04:38;;;;;;;9.18;4.28;;;5.30;82.10;;;;;;5112061;28;20436;-80
2022/01/07 01:07:04;;;;;;;6.97;3.63;;;5.30;82.00;;;;;;5111679;28;20041;-80
2022/01/07 01:09:30;;;;;;;8.48;3.58;;;5.30;82.00;;;;;;5111912;28;20509;-81
2022/01/07 01:11:57;;;;;;;8.40;3.95;;;5.20;82.00;;;;;;5113995;28;20016;-84
2022/01/07 01:14:23;;;;;;;9.10;3.72;;;5.20;82.50;;;;;;5113816;28;20378;-85
2022/01/07 01:16:51;;;;;;;9.43;3.65;;;5.20;82.70;;;;;;5113967;28;20398;-86
2022/01/07 01:19:17;;;;;;;8.68;3.85;;;5.20;82.80;;;;;;5115132;28;20016;-86
2022/01/07 01:21:43;;;;;;;8.35;3.70;;;5.20;82.80;;;;;;5114437;28;20558;-85
2022/01/07 01:24:09;;;;;;;9.20;4.38;;;5.10;82.70;;;;;;5115141;28;20019;-79
2022/01/07 01:26:34;;;;;;;6.22;3.70;;;5.10;82.90;;;;;;5111461;28;20015;-79
2022/01/07 01:29:03;;;;;;;10.73;3.90;;;5.00;83.40;;;;;;5117371;28;20079;-82
2022/01/07 01:31:30;;;;;;;7.60;3.47;;;5.00;83.40;;;;;;5115634;28;20566;-81
2022/01/07 01:33:57;;;;;;;9.52;3.72;;;5.00;83.60;;;;;;5118355;28;20051;-80
2022/01/07 01:36:23;;;;;;;7.18;3.55;;;5.00;83.70;;;;;;5118209;28;20024;-81
2022/01/07 01:38:49;;;;;;;6.57;3.50;;;4.90;83.80;;;;;;5119098;28;20532;-80
2022/01/07 01:41:15;;;;;;;9.80;4.05;;;4.90;83.90;;;;;;5120146;28;20486;-80
2022/01/07 01:43:41;;;;;;;11.35;4.20;;;4.90;83.90;;;;;;5118427;28;20035;-80
2022/01/07 01:46:07;;;;;;;9.98;3.78;;;4.90;84.00;;;;;;5121333;28;20019;-80
2022/01/07 01:48:32;;;;;;;11.88;3.88;;;4.80;84.00;;;;;;5120079;28;20019;-81
2022/01/07 01:50:58;;;;;;;7.63;3.70;;;4.80;84.10;;;;;;5120790;28;20111;-80
2022/01/07 01:53:25;;;;;;;7.78;3.45;;;4.80;84.20;;;;;;5121264;28;20028;-80
2022/01/07 01:55:54;;;;;;;8.05;3.65;;;4.80;84.20;;;;;;5121394;28;20118;-80
2022/01/07 01:58:20;;;;;;;6.10;3.67;;;4.80;84.80;;;;;;5123103;28;20428;-80
2022/01/07 02:00:45;;;;;;;7.45;4.00;;;4.80;84.20;;;;;;5121365;28;20114;-80
2022/01/07 02:03:11;;;;;;;10.10;3.78;;;4.80;84.30;;;;;;5119400;28;20057;-78
2022/01/07 02:05:37;;;;;;;7.13;3.50;;;4.80;84.90;;;;;;5115596;28;20036;-78
2022/01/07 02:08:03;;;;;;;6.18;3.30;;;4.90;84.30;;;;;;5117819;28;20480;-79
2022/01/07 02:10:28;;;;;;;8.52;3.55;;;4.90;84.40;;;;;;5121623;28;20035;-79
2022/01/07 02:12:54;;;;;;;7.45;3.80;;;4.90;84.40;;;;;;5121015;28;20016;-79
2022/01/07 02:15:20;;;;;;;9.45;4.07;;;4.90;84.40;;;;;;5122212;28;20032;-80
2022/01/07 02:17:48;;;;;;;9.07;4.03;;;4.90;84.40;;;;;;5121402;28;20533;-79
2022/01/07 02:20:17;;;;;;;7.72;4.28;;;4.90;84.40;;;;;;5118287;28;20024;-80
2022/01/07 02:22:43;;;;;;;6.65;3.75;;;4.90;84.50;;;;;;5115876;28;20023;-80
2022/01/07 02:25:10;;;;;;;7.18;3.30;;;4.90;84.40;;;;;;5114822;28;20531;-80
2022/01/07 02:27:41;;;;;;;7.95;3.72;;;4.90;84.40;;;;;;5115195;28;20026;-80
2022/01/07 02:30:15;;;;;;;6.60;3.58;;;4.90;84.40;;;;;;5115495;28;20087;-80
2022/01/07 02:32:41;;;;;;;8.50;3.90;;;4.90;84.40;;;;;;5116217;28;20024;-79
2022/01/07 02:35:08;;;;;;;6.50;3.10;;;4.90;84.40;;;;;;5115419;28;20514;-79
2022/01/07 02:37:34;;;;;;;6.88;3.47;;;4.90;84.60;;;;;;5114874;28;20083;-79
2022/01/07 02:40:02;;;;;;;7.50;3.30;;;4.90;84.50;;;;;;5115191;28;20092;-79
2022/01/07 02:42:29;;;;;;;8.18;3.50;;;4.90;84.50;;;;;;5116558;28;20065;-80
2022/01/07 02:44:54;;;;;;;6.25;3.25;;;4.90;84.50;;;;;;5114533;28;20027;-79
2022/01/07 02:47:21;;;;;;;8.10;3.30;;;5.00;84.60;;;;;;5116081;28;20023;-80
2022/01/07 02:49:50;;;;;;;7.10;3.30;;;5.00;84.60;;;;;;5111536;28;20051;-80
2022/01/07 02:52:16;;;;;;;5.22;3.10;;;4.90;84.90;;;;;;5118297;28;20036;-85
2022/01/07 02:54:41;;;;;;;5.57;3.00;;;4.90;84.70;;;;;;5118837;28;20376;-85
2022/01/07 02:57:07;;;;;;;9.48;3.13;;;4.90;84.70;;;;;;5117463;28;20157;-84
2022/01/07 02:59:33;;;;;;;5.88;3.10;;;4.90;84.90;;;;;;5117192;28;20028;-85
2022/01/07 03:01:58;;;;;;;6.65;2.80;;;4.90;84.80;;;;;;5118775;28;20024;-84
2022/01/07 03:04:26;;;;;;;7.53;3.28;;;5.00;84.80;;;;;;5118270;28;20027;-84
2022/01/07 03:06:52;;;;;;;8.32;3.13;;;5.00;84.80;;;;;;5117143;28;20023;-84
2022/01/07 03:09:18;;;;;;;7.10;2.83;;;5.00;84.80;;;;;;5119182;28;20027;-84
2022/01/07 03:11:46;;;;;;;7.05;2.95;;;5.00;84.70;;;;;;5118353;28;20042;-84
2022/01/07 03:14:11;;;;;;;5.43;2.85;;;5.00;84.70;;;;;;5119845;28;20475;-84
2022/01/07 03:16:39;;;;;;;7.05;3.38;;;5.00;84.70;;;;;;5119459;28;20066;-85
2022/01/07 03:19:06;;;;;;;11.02;3.13;;;5.00;84.70;;;;;;5119619;28;20466;-84
2022/01/07 03:21:31;;;;;;;5.07;2.65;;;5.00;84.80;;;;;;5116474;28;20505;-85
2022/01/07 03:23:57;;;;;;;7.35;2.80;;;5.00;84.70;;;;;;5117533;28;20030;-83
2022/01/07 03:26:23;;;;;;;8.32;3.30;;;5.00;84.70;;;;;;5117666;28;20029;-84
2022/01/07 03:28:48;;;;;;;5.40;2.80;;;5.00;84.70;;;;;;5117917;28;20471;-84
2022/01/07 03:31:14;;;;;;;9.02;3.00;;;5.00;84.60;;;;;;5118226;28;20020;-85
2022/01/07 03:33:40;;;;;;;4.90;2.75;;;5.00;84.70;;;;;;5118938;28;20035;-84
2022/01/07 03:36:06;;;;;;;4.85;2.60;;;5.00;84.70;;;;;;5117472;28;20023;-84
2022/01/07 03:38:32;;;;;;;7.82;2.40;;;5.00;84.70;;;;;;5117249;28;20493;-84
2022/01/07 03:40:58;;;;;;;8.27;3.00;;;5.00;84.70;;;;;;5117898;28;20429;-83
2022/01/07 03:43:24;;;;;;;6.63;3.10;;;5.10;84.70;;;;;;5117290;28;20072;-83
2022/01/07 03:45:49;;;;;;;4.32;2.70;;;5.00;84.70;;;;;;5117900;28;20024;-80
2022/01/07 03:48:15;;;;;;;6.07;2.50;;;5.00;84.80;;;;;;5117889;28;20546;-80
2022/01/07 03:50:41;;;;;;;5.30;3.25;;;5.10;84.80;;;;;;5115808;28;20024;-80
2022/01/07 03:53:07;;;;;;;5.47;2.78;;;5.10;84.80;;;;;;5118377;28;20071;-80
2022/01/07 03:55:32;;;;;;;5.50;2.50;;;5.10;84.90;;;;;;5119314;28;20047;-79
2022/01/07 03:57:59;;;;;;;6.72;2.80;;;5.00;84.90;;;;;;5118414;28;20024;-84
2022/01/07 04:00:32;;;;;;;4.60;2.65;;;5.00;84.90;;;;;;5117587;28;20023;-84
2022/01/07 04:02:58;;;;;;;5.00;2.70;;;5.00;85.10;;;;;;5116630;28;20024;-84
2022/01/07 04:05:24;;;;;;;5.80;2.80;;;5.00;85.10;;;;;;5117964;28;20107;-85
2022/01/07 04:07:51;;;;;;;4.63;2.60;;;4.90;85.20;;;;;;5117079;28;20036;-84
2022/01/07 04:10:17;;;;;;;7.15;2.50;;;4.90;85.30;;;;;;5115798;28;20024;-79
2022/01/07 04:12:43;;;;;;;5.55;2.63;;;4.90;85.30;;;;;;5112805;28;20094;-79
2022/01/07 04:15:09;;;;;;;6.25;2.70;;;5.00;85.40;;;;;;5113135;28;20020;-79
2022/01/07 04:17:43;;;;;;;6.03;2.60;;;5.00;85.40;;;;;;5112957;28;20104;-79
2022/01/07 04:20:11;;;;;;;4.65;2.45;;;5.00;85.40;;;;;;5112905;28;20020;-78
2022/01/07 04:22:37;;;;;;;5.60;2.55;;;5.00;85.30;;;;;;5112955;28;20019;-79
2022/01/07 04:25:06;;;;;;;7.68;2.70;;;5.00;85.30;;;;;;5112627;28;20024;-80
2022/01/07 04:27:32;;;;;;;5.63;3.20;;;5.00;85.40;;;;;;5113221;28;20068;-80
2022/01/07 04:29:58;;;;;;;4.97;2.83;;;5.00;85.40;;;;;;5113108;28;20077;-79
2022/01/07 04:32:24;;;;;;;5.43;2.53;;;5.00;85.50;;;;;;5114368;28;20024;-80
2022/01/07 04:34:49;;;;;;;4.97;2.97;;;4.90;85.50;;;;;;5118700;28;20047;-81
2022/01/07 04:37:15;;;;;;;5.57;2.95;;;4.90;85.50;;;;;;5118702;28;20023;-80
2022/01/07 04:39:41;;;;;;;5.40;2.88;;;4.90;85.50;;;;;;5119295;28;20027;-81
2022/01/07 04:42:07;;;;;;;5.40;3.00;;;4.90;85.60;;;;;;5118048;28;20020;-80
2022/01/07 04:44:35;;;;;;;5.68;2.95;;;4.80;85.50;;;;;;5118991;28;20067;-81
2022/01/07 04:47:01;;;;;;;5.18;3.20;;;4.70;85.60;;;;;;5118715;28;20020;-81
2022/01/07 04:49:27;;;;;;;5.05;2.75;;;4.70;85.90;;;;;;5113918;28;20427;-80
2022/01/07 04:51:52;;;;;;;7.03;3.13;;;4.60;85.90;;;;;;5114063;28;20093;-81
2022/01/07 04:54:19;;;;;;;4.88;3.00;;;4.60;86.10;;;;;;5114095;28;20051;-80
2022/01/07 04:56:45;;;;;;;3.53;2.60;;;4.60;86.20;;;;;;5114136;28;20035;-80
2022/01/07 04:59:10;;;;;;;3.72;2.30;;;4.60;86.20;;;;;;5113425;28;20471;-81
2022/01/07 05:01:36;;;;;;;4.18;2.65;;;4.60;86.30;;;;;;5114786;28;20031;-81
2022/01/07 05:04:04;;;;;;;4.03;2.55;;;4.60;86.40;;;;;;5114146;28;20632;-81
2022/01/07 05:06:45;;;;;;;4.28;2.95;;;4.60;86.40;;;;;;5114386;28;20030;-80
2022/01/07 05:09:16;;;;;;;3.25;2.45;;;4.60;86.40;;;;;;5114633;28;20154;-80
2022/01/07 05:11:48;;;;;;;4.50;2.63;;;4.70;86.60;;;;;;5115333;28;20467;-80
2022/01/07 05:14:14;;;;;;;5.05;3.08;;;4.70;86.60;;;;;;5116573;28;20108;-81
2022/01/07 05:16:41;;;;;;;5.13;2.90;;;4.70;86.50;;;;;;5117661;28;20034;-81
2022/01/07 05:19:06;;;;;;;4.60;2.45;;;4.70;86.60;;;;;;5117310;28;20027;-80
2022/01/07 05:21:33;;;;;;;5.20;2.78;;;4.70;86.60;;;;;;5117912;28;20038;-81
2022/01/07 05:23:59;;;;;;;6.32;2.97;;;4.70;86.70;;;;;;5118054;28;20437;-85
2022/01/07 05:26:25;;;;;;;5.03;3.15;;;4.70;86.60;;;;;;5118964;28;20015;-85
2022/01/07 05:28:50;;;;;;;4.68;3.05;;;4.70;86.70;;;;;;5118914;28;20055;-85
2022/01/07 05:31:17;;;;;;;3.83;2.95;;;4.70;86.80;;;;;;5120945;28;20436;-84
2022/01/07 05:33:43;;;;;;;5.03;2.50;;;4.70;86.90;;;;;;5119371;28;20012;-84
2022/01/07 05:36:09;;;;;;;4.57;2.80;;;4.80;87.00;;;;;;5119985;28;20019;-84
2022/01/07 05:38:34;;;;;;;5.25;2.92;;;4.80;87.00;;;;;;5119910;28;20110;-84
2022/01/07 05:41:00;;;;;;;3.63;2.60;;;4.80;87.00;;;;;;5119593;28;20019;-83
2022/01/07 05:43:28;;;;;;;5.03;2.80;;;4.80;87.10;;;;;;5119974;28;20023;-84
2022/01/07 05:45:54;;;;;;;4.32;3.08;;;4.80;87.10;;;;;;5119679;28;20024;-84
2022/01/07 05:48:20;;;;;;;4.45;2.70;;;4.90;87.20;;;;;;5122017;28;20106;-80
2022/01/07 05:50:46;;;;;;;4.10;2.63;;;4.90;87.20;;;;;;5120699;28;20026;-79
2022/01/07 05:53:11;;;;;;;5.68;2.90;;;4.90;87.20;;;;;;5115831;28;20059;-79
2022/01/07 05:55:37;;;;;;;5.63;3.10;;;4.90;87.20;;;;;;5115839;28;20077;-79
2022/01/07 05:58:03;;;;;;;2.80;2.47;;;5.00;87.30;;;;;;5115808;28;20419;-79
2022/01/07 06:00:29;;;;;;;4.30;2.75;;;4.90;87.30;;;;;;5113222;28;20059;-79
2022/01/07 06:02:55;;;;;;;5.00;3.28;;;4.90;87.30;;;;;;5120829;28;20027;-80
2022/01/07 06:05:21;;;;;;;4.20;2.95;;;4.90;87.30;;;;;;5121087;28;20028;-79
2022/01/07 06:07:46;;;;;;;4.93;3.20;;;5.00;87.40;;;;;;5119123;28;20015;-79
2022/01/07 06:10:12;;;;;;;5.28;3.20;;;5.00;87.50;;;;;;5120250;28;20448;-79
2022/01/07 06:13:25;;;;;;;5.88;3.20;;;5.00;87.50;;;;;;5120913;28;20061;-80
2022/01/07 06:15:50;;;;;;;5.18;3.70;;;5.00;87.50;;;;;;5120568;28;20023;-79
2022/01/07 06:18:16;;;;;;;5.32;3.67;;;5.00;87.60;;;;;;5120058;28;20050;-78
2022/01/07 06:20:42;;;;;;;5.90;3.60;;;5.00;87.60;;;;;;5119730;28;20023;-80
2022/01/07 06:23:08;;;;;;;6.38;3.78;;;5.00;87.70;;;;;;5116649;28;20027;-80
2022/01/07 06:25:33;;;;;;;7.45;4.18;;;5.00;87.70;;;;;;5115779;28;20024;-80
2022/01/07 06:27:59;;;;;;;5.63;3.53;;;5.10;87.80;;;;;;5115450;28;20058;-80
2022/01/07 06:30:24;;;;;;;6.57;3.78;;;5.10;87.80;;;;;;5115789;28;20016;-80
2022/01/07 06:32:50;;;;;;;5.78;3.72;;;5.20;87.90;;;;;;5115352;28;20023;-79
2022/01/07 06:35:16;;;;;;;6.65;4.60;;;5.10;87.80;;;;;;5116722;28;20107;-80
2022/01/07 06:37:42;;;;;;;6.90;4.13;;;5.20;87.90;;;;;;5115297;28;20552;-80
2022/01/07 06:40:09;;;;;;;8.93;4.20;;;5.20;87.90;;;;;;5115638;28;20063;-80
2022/01/07 06:42:35;;;;;;;5.47;4.50;;;5.20;88.00;;;;;;5115813;28;20015;-80
2022/01/07 06:45:01;;;;;;;7.28;4.60;;;5.20;88.00;;;;;;5117107;28;20031;-80
2022/01/07 06:50:49;;;;;;;7.45;4.80;;;5.30;88.10;;;;;;5116413;28;20430;-80
2022/01/07 06:53:14;;;;;;;5.22;4.40;;;5.30;88.10;;;;;;5114909;28;20053;-80
2022/01/07 06:55:40;;;;;;;7.70;4.78;;;5.30;88.10;;;;;;5115008;28;20023;-80
2022/01/07 06:58:06;;;;;;;6.03;4.70;;;5.30;88.20;;;;;;5114312;28;20023;-80
2022/01/07 07:00:31;;;;;;;6.15;4.50;;;5.30;88.20;;;;;;5115150;28;20020;-79
2022/01/07 07:02:57;;;;;;;10.00;5.80;;;5.40;88.20;;;;;;5115449;28;20015;-80
2022/01/07 07:05:24;;;;;;;10.50;5.68;;;5.40;88.20;;;;;;5115231;28;20024;-80
2022/01/07 07:07:50;;;;;;;7.57;5.05;;;5.30;88.20;;;;;;5116381;28;20072;-80
2022/01/07 07:10:16;;;;;;;7.65;5.15;;;5.40;88.30;;;;;;5114987;28;20149;-81
2022/01/07 07:12:42;;;;;;;7.15;4.97;;;5.40;88.30;;;;;;5114313;28;20023;-80
2022/01/07 07:15:08;;;;;;;10.73;5.53;;;5.40;88.30;;;;;;5115973;28;20031;-80
2022/01/07 07:17:35;;;;;;;10.27;4.93;;;5.40;88.40;;;;;;5114857;28;20511;-79
2022/01/07 07:20:02;;;;;;;8.35;5.13;;;5.40;88.40;;;;;;5114823;28;20399;-80
2022/01/07 07:22:31;;;;;;;7.05;5.50;;;5.50;88.40;;;;;;5112685;28;20376;-80
2022/01/07 07:24:59;;;;;;;9.45;6.38;;;5.50;88.40;;;;;;5114481;28;20429;-81
2022/01/07 07:27:25;;;;;;;8.02;5.90;;;5.50;88.40;;;;;;5115166;28;20479;-80
2022/01/07 07:29:50;;;;;;;7.50;5.25;;;5.50;88.50;;;;;;5115065;28;20089;-80
2022/01/07 07:32:22;;;;;;;11.38;5.70;;;5.50;88.50;;;;;;5114453;28;20379;-81
2022/01/07 07:37:35;;;;;;;10.85;5.40;;;5.60;88.60;;;;;;5116356;28;20030;-81
2022/01/07 07:40:01;;;;;;;8.02;5.00;;;5.60;88.50;;;;;;5115635;28;20015;-81
2022/01/07 07:45:49;;;;;;;8.55;5.85;;;5.60;88.50;;;;;;5116692;28;20085;-81
2022/01/07 07:48:14;;;;;;;10.32;6.03;;;5.60;88.50;;;;;;5114807;28;20016;-80
2022/01/07 07:50:40;;;;;;;6.80;5.35;;;5.60;88.50;;;;;;5112402;28;20020;-81
2022/01/07 07:53:06;;;;;;;8.50;5.50;;;5.60;88.50;;;;;;5115143;28;20023;-82
2022/01/07 07:56:15;;;;;;;8.90;5.70;;;5.70;88.60;;;;;;5115016;28;20051;-81
2022/01/07 07:58:42;;;;;;;9.88;6.10;;;5.70;88.60;;;;;;5116842;28;20069;-82
2022/01/07 08:01:08;;;;;;;11.30;6.07;;;5.70;88.70;;;;;;5112464;28;20502;-81
2022/01/07 08:03:35;;;;;;;9.50;6.32;;;5.70;88.60;;;;;;5115122;28;20024;-81
2022/01/07 08:06:01;;;;;;;10.38;5.88;;;5.70;88.60;;;;;;5111580;28;20039;-81
2022/01/07 08:08:27;;;;;;;11.18;6.07;;;5.70;88.60;;;;;;5096990;28;20035;-81
2022/01/07 08:10:57;;;;;;;11.68;6.20;;;5.70;88.60;;;;;;5111228;28;20038;-81
2022/01/07 08:16:02;;;;;;;9.27;6.30;;;5.70;88.70;;;;;;5115852;28;20114;-80
2022/01/07 08:18:32;;;;;;;8.20;5.43;;;5.80;88.70;;;;;;5114854;28;20050;-81
2022/01/07 08:21:19;;;;;;;7.18;5.40;;;5.80;88.70;;;;;;5114311;28;20019;-81
2022/01/07 08:23:46;;;;;;;9.10;5.85;;;5.80;88.60;;;;;;5114008;28;20390;-82
2022/01/07 08:26:15;;;;;;;11.30;5.82;;;5.80;88.60;;;;;;5114297;28;20023;-82
2022/01/07 08:29:05;;;;;;;10.00;5.80;;;5.80;88.60;;;;;;5114835;28;20043;-82
2022/01/07 08:36:50;;;;;;;9.57;6.30;;;5.90;89.20;;;;;;5116135;28;20027;-83
2022/01/07 08:39:19;;;;;;;14.23;6.30;;;5.90;88.60;;;;;;5115189;28;20023;-81
2022/01/07 08:41:44;;;;;;;14.68;6.10;;;5.90;88.60;;;;;;5115393;28;20018;-81
2022/01/07 08:44:22;;;;;;;11.13;5.90;;;5.90;88.50;;;;;;5115243;28;20194;-83
2022/01/07 08:46:52;;;;;;;11.10;6.03;;;5.90;88.50;;;;;;5098746;28;20032;-82
2022/01/07 08:49:20;;;;;;;9.32;6.22;;;5.90;88.50;;;;;;5119034;28;20020;-81
2022/01/07 08:51:46;;;;;;;9.85;6.55;;;5.90;88.50;;;;;;5119284;28;20004;-82
2022/01/07 08:54:14;;;;;;;8.88;6.05;;;6.00;88.60;;;;;;5118763;28;20024;-82
2022/01/07 08:56:40;;;;;;;7.97;6.20;;;6.00;88.60;;;;;;5119194;28;20487;-82
2022/01/07 08:59:06;;;;;;;9.00;6.05;;;6.00;88.60;;;;;;5118427;28;20022;-82
2022/01/07 09:01:32;;;;;;;9.02;6.60;;;6.00;88.60;;;;;;5119073;28;20020;-81
2022/01/07 09:04:01;;;;;;;8.13;6.30;;;6.00;88.60;;;;;;5120884;28;20020;-80
2022/01/07 09:06:26;;;;;;;9.70;6.38;;;6.10;88.60;;;;;;5121531;28;20028;-82
2022/01/07 09:08:53;;;;;;;16.23;7.05;;;6.10;89.20;;;;;;5120937;28;20115;-81
2022/01/07 09:11:19;;;;;;;9.68;6.60;;;6.10;88.50;;;;;;5120788;28;20386;-82
2022/01/07 09:13:45;;;;;;;9.23;5.85;;;6.10;88.50;;;;;;5120559;28;20061;-81
2022/01/07 09:16:14;;;;;;;12.45;6.63;;;6.20;88.50;;;;;;5120532;28;20099;-81
2022/01/07 09:18:40;;;;;;;10.85;6.63;;;6.20;88.40;;;;;;5120354;28;20139;-80
2022/01/07 09:21:06;;;;;;;9.00;6.28;;;6.20;88.40;;;;;;5120552;28;20023;-80
2022/01/07 09:23:32;;;;;;;8.88;5.70;;;6.20;88.40;;;;;;5120283;28;20040;-81
2022/01/07 09:25:57;;;;;;;8.82;6.20;;;6.20;88.40;;;;;;5119777;28;20012;-81
2022/01/07 09:28:23;;;;;;;10.35;6.18;;;6.20;88.40;;;;;;5119564;28;20012;-81
2022/01/07 09:30:49;;;;;;;7.18;6.07;;;6.30;88.40;;;;;;5119296;28;20076;-80
2022/01/07 09:33:15;;;;;;;8.70;6.20;;;6.30;88.40;;;;;;5118693;28;20022;-81
2022/01/07 09:35:41;;;;;;;10.52;6.20;;;6.30;88.30;;;;;;5118886;28;20015;-80
2022/01/07 09:38:06;;;;;;;11.60;7.35;;;6.30;89.00;;;;;;5118282;28;20054;-80
2022/01/07 09:43:54;;;;;;;12.35;6.70;;;6.30;88.30;;;;;;5119319;28;20126;-80
2022/01/07 09:46:20;;;;;;;11.02;6.55;;;6.30;88.20;;;;;;5117747;28;20020;-80
2022/01/07 09:48:46;;;;;;;9.77;6.35;;;6.40;88.30;;;;;;5116362;28;20127;-81
2022/01/07 09:51:14;;;;;;;7.18;6.35;;;6.40;88.20;;;;;;5116653;28;20022;-80
2022/01/07 09:53:42;;;;;;;11.68;6.85;;;6.40;88.10;;;;;;5116557;28;20084;-80
2022/01/07 09:56:08;;;;;;;7.97;5.88;;;6.40;88.70;;;;;;5115669;28;20019;-80
2022/01/07 09:58:34;;;;;;;14.32;7.22;;;6.40;88.00;;;;;;5115929;28;20419;-80
2022/01/07 10:01:09;;;;;;;10.00;6.45;;;6.40;88.00;;;;;;5115262;28;20024;-80
2022/01/07 10:03:38;;;;;;;11.10;6.38;;;6.40;88.00;;;;;;5116622;28;20023;-80
2022/01/07 10:06:19;;;;;;;8.38;6.07;;;6.40;88.00;;;;;;5116377;28;20028;-80
2022/01/07 10:08:58;;;;;;;8.32;5.90;;;6.40;88.00;;;;;;5116148;28;20477;-80
2022/01/07 10:11:23;;;;;;;9.30;5.85;;;6.50;88.00;;;;;;5115982;28;20016;-80
2022/01/07 10:14:11;;;;;;;8.73;5.78;;;6.50;88.00;;;;;;5113281;28;20340;-80
2022/01/07 10:16:51;;;;;;;9.50;5.43;;;6.60;88.00;;;;;;5116626;28;20027;-81
2022/01/07 10:22:54;;;;;;;9.25;5.55;;;6.60;87.80;;;;;;5118478;28;20081;-88
2022/01/07 10:25:22;;;;;;;8.18;5.75;;;6.70;87.70;;;;;;5125703;28;20087;-91
2022/01/07 10:27:48;;;;;;;9.57;5.78;;;6.80;87.70;;;;;;5123698;28;20016;-86
2022/01/07 10:30:26;;;;;;;9.15;5.80;;;6.90;87.60;;;;;;5126432;28;20076;-88
2022/01/07 10:32:56;;;;;;;9.68;5.97;;;7.00;87.50;;;;;;5120511;28;20007;-82
2022/01/07 10:35:29;;;;;;;9.88;5.80;;;7.00;87.30;;;;;;5116597;28;20395;-82
2022/01/07 10:38:00;;;;;;;15.05;6.78;;;6.90;87.20;;;;;;5116958;28;20034;-80
2022/01/07 10:41:07;;;;;;;10.52;6.45;;;6.90;87.40;;;;;;5117935;28;20028;-79
2022/01/07 10:43:34;;;;;;;11.57;6.72;;;6.80;87.60;;;;;;5116055;28;20118;-81
2022/01/07 10:46:25;;;;;;;11.32;6.13;;;6.80;87.90;;;;;;5116265;28;20015;-81
2022/01/07 10:48:55;;;;;;;12.77;6.95;;;6.70;87.90;;;;;;5115030;28;20032;-80
2022/01/07 10:51:26;;;;;;;15.60;7.70;;;6.70;88.00;;;;;;5115737;28;20113;-81
2022/01/07 10:53:55;;;;;;;11.95;7.03;;;6.80;88.20;;;;;;5116510;28;20486;-79
2022/01/07 10:56:32;;;;;;;10.05;6.63;;;6.80;88.10;;;;;;5115476;28;20003;-82
2022/01/07 11:02:33;;;;;;;8.65;5.90;;;6.80;88.20;;;;;;5116719;28;20061;-81
2022/01/07 11:04:58;;;;;;;8.77;5.55;;;6.70;88.10;;;;;;5113085;28;20043;-80
2022/01/07 11:07:36;;;;;;;10.65;6.10;;;6.70;88.10;;;;;;5119318;28;20015;-83
2022/01/07 11:10:49;;;;;;;8.38;5.80;;;6.70;88.20;;;;;;5123357;28;20032;-82
2022/01/07 11:13:19;;;;;;;9.48;5.80;;;6.80;88.40;;;;;;5121342;28;20185;-84
2022/01/07 11:19:09;;;;;;;12.13;5.60;;;6.80;88.20;;;;;;5110944;28;20430;-83
2022/01/07 11:21:36;;;;;;;9.48;5.35;;;6.80;88.20;;;;;;5116135;28;20027;-81
2022/01/07 11:24:38;;;;;;;8.55;5.15;;;6.80;88.10;;;;;;5114926;28;20038;-81
2022/01/07 11:27:13;;;;;;;11.27;5.60;;;6.90;88.10;;;;;;5113454;28;20631;-80
2022/01/07 11:29:44;;;;;;;10.88;5.68;;;6.80;87.90;;;;;;5113234;28;20394;-80
2022/01/07 11:32:25;;;;;;;9.68;5.43;;;6.90;87.90;;;;;;5114219;28;20035;-80
2022/01/07 11:34:57;;;;;;;16.63;6.20;;;6.80;87.70;;;;;;5115023;28;20024;-79
2022/01/07 11:37:37;;;;;;;10.45;5.40;;;6.80;87.70;;;;;;5115182;28;20032;-82
2022/01/07 11:40:05;;;;;;;11.65;6.07;;;6.90;87.70;;;;;;5114108;28;20505;-82
2022/01/07 11:42:41;;;;;;;8.60;5.38;;;6.90;87.60;;;;;;5116087;28;20028;-81
2022/01/07 11:45:34;;;;;;;7.93;4.53;;;6.90;87.60;;;;;;5114822;28;20033;-81
2022/01/07 11:48:13;;;;;;;7.40;4.88;;;6.90;87.50;;;;;;5115414;28;20019;-82
2022/01/07 11:51:00;;;;;;;7.60;4.72;;;6.90;87.30;;;;;;5115168;28;20027;-82
2022/01/07 11:53:50;;;;;;;11.35;5.10;;;7.00;87.30;;;;;;5116195;28;20024;-82
2022/01/07 11:56:18;;;;;;;9.00;5.05;;;7.00;87.10;;;;;;5106712;28;20043;-82
2022/01/07 11:58:56;;;;;;;10.80;4.90;;;7.00;87.20;;;;;;5114571;28;20084;-81
2022/01/07 12:01:27;;;;;;;11.05;4.68;;;7.00;87.10;;;;;;5114667;28;20023;-81
2022/01/07 12:04:36;;;;;;;7.15;4.43;;;7.10;87.10;;;;;;5115461;28;20130;-80
2022/01/07 12:10:26;;;;;;;8.32;4.30;;;7.10;86.90;;;;;;5116822;28;20464;-81
2022/01/07 12:12:59;;;;;;;7.00;3.70;;;7.20;86.80;;;;;;5098392;28;20023;-82
2022/01/07 12:18:53;;;;;;;6.93;3.65;;;7.20;86.40;;;;;;5117135;28;20120;-81
2022/01/07 12:24:41;;;;;;;7.47;3.80;;;7.30;86.10;;;;;;5119715;28;20078;-84
2022/01/07 12:30:31;;;;;;;8.43;3.40;;;7.40;85.80;;;;;;5118136;28;20521;-84
2022/01/07 12:33:06;;;;;;;6.55;3.45;;;7.50;85.60;;;;;;5099414;28;20076;-84
2022/01/07 12:36:00;;;;;;;5.32;2.92;;;7.50;85.60;;;;;;5094581;28;20114;-82
2022/01/07 12:38:26;;;;;;;7.20;3.67;;;7.50;85.40;;;;;;5078550;28;20499;-82
2022/01/07 12:40:55;;;;;;;8.60;3.88;;;7.60;85.20;;;;;;5097895;28;20520;-83
2022/01/07 12:43:22;;;;;;;6.28;3.58;;;7.60;85.00;;;;;;5116700;28;20043;-82
2022/01/07 12:45:59;;;;;;;8.02;3.60;;;7.70;84.90;;;;;;5100079;28;20514;-84
2022/01/07 12:52:24;;;;;;;7.20;3.83;;;7.70;84.10;;;;;;5116003;28;20056;-82
2022/01/07 12:54:54;;;;;;;10.70;4.30;;;7.60;83.80;;;;;;5084555;28;20446;-84
2022/01/07 13:01:36;;;;;;;7.93;4.03;;;7.60;84.10;;;;;;5115749;28;20066;-84
2022/01/07 13:04:07;;;;;;;7.95;3.97;;;7.60;84.00;;;;;;5038085;28;20090;-84
2022/01/07 13:06:40;;;;;;;7.15;4.53;;;7.60;84.10;;;;;;5105825;28;20039;-85
2022/01/07 13:09:06;;;;;;;7.55;4.90;;;7.60;83.80;;;;;;5116919;28;20201;-84
2022/01/07 13:11:32;;;;;;;9.25;4.55;;;7.60;83.50;;;;;;5116470;28;20190;-84
2022/01/07 13:14:06;;;;;;;9.85;4.80;;;7.50;83.50;;;;;;5116222;28;20020;-84
2022/01/07 13:16:34;;;;;;;9.20;4.30;;;7.50;83.70;;;;;;5116211;28;20222;-84
2022/01/07 13:19:05;;;;;;;5.35;3.97;;;7.50;83.80;;;;;;5115666;28;20047;-84
2022/01/07 13:21:33;;;;;;;8.73;4.28;;;7.50;84.00;;;;;;5098965;28;20441;-84
2022/01/07 13:27:41;;;;;;;7.45;3.85;;;7.50;84.10;;;;;;5117615;28;20149;-84
2022/01/07 13:33:43;;;;;;;15.00;7.13;;;7.50;84.00;;;;;;5117201;28;20444;-82
2022/01/07 13:39:48;;;;;;;12.50;6.13;;;7.50;84.20;;;;;;5120520;28;20026;-84
2022/01/07 13:46:14;;;;;;;12.00;4.68;;;7.50;83.70;;;;;;5121158;28;20047;-84
2022/01/07 13:48:56;;;;;;;8.80;3.63;;;7.40;83.50;;;;;;5102017;28;20019;-84
2022/01/07 13:51:27;;;;;;;2.90;1.30;;;7.30;82.50;;;;;;5102546;28;20019;-83
2022/01/07 13:57:16;;;;;;;2.40;0.85;;;6.60;80.20;;;;;;5121049;28;20513;-83
2022/01/07 13:59:53;;;;;;;5.82;0.95;;;6.30;81.60;;;;;;5120254;28;20038;-84
2022/01/07 14:02:26;;;;;;;2.53;0.73;;;6.20;81.60;;;;;;5102244;28;20023;-84
2022/01/07 14:04:55;;;;;;;0.95;0.75;;;6.00;81.20;;;;;;5116655;28;20031;-82
2022/01/07 14:07:20;;;;;;;1.67;0.68;;;5.90;81.20;;;;;;5116886;28;20429;-80
2022/01/07 14:10:07;;;;;;;1.00;0.60;;;5.80;80.90;;;;;;5117109;28;20073;-79
2022/01/07 14:12:44;;;;;;;4.38;0.90;;;5.70;81.00;;;;;;5117174;28;20088;-80
2022/01/07 14:15:11;;;;;;;3.55;0.90;;;5.60;81.00;;;;;;5115041;28;20030;-78